createdAt,value
2018-04-17T00:00:11.872Z,82.02
2018-04-17T00:02:39.271Z,82.13
2018-04-17T00:05:06.659Z,82.37
2018-04-17T00:07:34.047Z,82.47
2018-04-17T00:10:01.507Z,82.89
2018-04-17T00:12:28.894Z,83.30
2018-04-17T00:14:56.294Z,83.56
2018-04-17T00:17:23.688Z,83.72
2018-04-17T00:19:51.075Z,84.04
2018-04-17T00:22:18.467Z,84.48
2018-04-17T00:24:45.860Z,84.97
2018-04-17T00:27:13.254Z,85.23
2018-04-17T00:29:40.643Z,85.15
2018-04-17T00:32:08.027Z,85.39
2018-04-17T00:34:35.424Z,85.67
2018-04-17T00:37:02.823Z,85.56
2018-04-17T00:39:30.223Z,85.52
2018-04-17T00:41:57.602Z,86.14
2018-04-17T00:44:24.990Z,86.32
2018-04-17T00:46:52.387Z,86.21
2018-04-17T00:49:19.811Z,86.16
2018-04-17T00:51:47.206Z,85.88
2018-04-17T00:54:14.595Z,86.17
2018-04-17T00:56:41.983Z,86.53
2018-04-17T00:59:09.379Z,86.66
2018-04-17T01:01:36.771Z,86.72
2018-04-17T01:04:04.176Z,87.02
2018-04-17T01:06:31.565Z,87.48
2018-04-17T01:08:58.959Z,87.91
2018-04-17T01:11:26.352Z,87.90
2018-04-17T01:13:53.746Z,88.09
2018-04-17T01:16:21.143Z,88.27
2018-04-17T01:18:48.538Z,88.48
2018-04-17T01:21:15.918Z,88.59
2018-04-17T01:23:43.315Z,88.69
2018-04-17T01:26:10.695Z,88.23
2018-04-17T01:28:38.107Z,88.18
2018-04-17T01:31:05.491Z,88.17
2018-04-17T01:33:32.875Z,88.14
2018-04-17T01:36:00.266Z,87.93
2018-04-17T01:38:27.654Z,87.81
2018-04-17T01:40:55.076Z,87.95
2018-04-17T01:43:22.457Z,88.03
2018-04-17T01:45:49.847Z,87.90
2018-04-17T01:48:17.243Z,88.02
2018-04-17T01:50:44.635Z,87.91
2018-04-17T01:53:12.026Z,87.51
2018-04-17T01:55:39.413Z,86.97
2018-04-17T01:58:06.800Z,86.56
2018-04-17T02:00:34.191Z,86.10
2018-04-17T02:03:01.579Z,86.27
2018-04-17T02:05:28.999Z,86.47
2018-04-17T02:07:56.398Z,86.75
2018-04-17T02:10:23.906Z,86.84
2018-04-17T02:12:51.299Z,86.75
2018-04-17T02:15:18.694Z,86.68
2018-04-17T02:17:46.089Z,86.88
2018-04-17T02:20:13.470Z,86.79
2018-04-17T02:22:40.863Z,87.33
2018-04-17T02:25:08.260Z,87.03
2018-04-17T02:27:35.647Z,87.15
2018-04-17T02:30:03.043Z,87.07
2018-04-17T02:32:30.427Z,87.30
2018-04-17T02:34:57.816Z,87.53
2018-04-17T02:37:25.203Z,87.57
2018-04-17T02:39:52.591Z,87.92
2018-04-17T02:42:20.005Z,88.07
2018-04-17T02:44:47.395Z,88.18
2018-04-17T02:47:14.873Z,88.46
2018-04-17T02:49:43.131Z,88.22
2018-04-17T02:52:10.519Z,87.98
2018-04-17T02:54:37.920Z,87.62
2018-04-17T02:57:05.298Z,87.72
2018-04-17T02:59:32.680Z,87.23
2018-04-17T03:02:00.067Z,87.40
2018-04-17T03:04:27.451Z,88.05
2018-04-17T03:06:54.866Z,87.97
2018-04-17T03:09:22.252Z,87.52
2018-04-17T03:11:49.630Z,87.56
2018-04-17T03:14:17.026Z,88.14
2018-04-17T03:16:44.411Z,87.80
2018-04-17T03:19:11.798Z,87.89
2018-04-17T03:21:39.179Z,88.73
2018-04-17T03:24:06.571Z,89.66
2018-04-17T03:26:33.963Z,89.36
2018-04-17T03:29:01.348Z,89.02
2018-04-17T03:31:28.742Z,89.29
2018-04-17T03:33:56.137Z,89.21
2018-04-17T03:36:23.523Z,88.80
2018-04-17T03:38:50.915Z,89.15
2018-04-17T03:41:18.295Z,88.75
2018-04-17T03:43:45.683Z,88.70
2018-04-17T03:46:13.068Z,89.07
2018-04-17T03:48:40.455Z,89.76
2018-04-17T03:51:07.838Z,90.06
2018-04-17T03:53:35.222Z,89.69
2018-04-17T03:56:02.635Z,88.87
2018-04-17T03:58:30.223Z,88.88
2018-04-17T04:00:57.621Z,88.95
2018-04-17T04:03:24.998Z,88.99
2018-04-17T04:05:52.383Z,89.06
2018-04-17T04:08:19.779Z,89.04
2018-04-17T04:10:47.167Z,89.11
2018-04-17T04:13:14.551Z,89.49
2018-04-17T04:15:41.939Z,89.48
2018-04-17T04:18:21.195Z,89.30
2018-04-17T04:21:00.346Z,89.30
2018-04-17T04:23:39.487Z,89.08
2018-04-17T04:26:18.707Z,89.28
2018-04-17T04:28:46.099Z,89.35
2018-04-17T04:31:13.480Z,89.62
2018-04-17T04:33:40.871Z,89.51
2018-04-17T04:36:08.255Z,89.30
2018-04-17T04:38:35.642Z,89.22
2018-04-17T04:41:03.041Z,89.21
2018-04-17T04:43:30.424Z,89.33
2018-04-17T04:45:57.815Z,89.22
2018-04-17T04:48:25.607Z,89.23
2018-04-17T04:50:52.991Z,89.29
2018-04-17T04:53:20.392Z,89.21
2018-04-17T04:55:47.771Z,89.09
2018-04-17T04:58:15.161Z,89.11
2018-04-17T05:00:42.546Z,89.18
2018-04-17T05:03:09.931Z,89.02
2018-04-17T05:05:37.316Z,89.16
2018-04-17T05:08:04.703Z,89.12
2018-04-17T05:10:32.091Z,88.81
2018-04-17T05:12:59.482Z,88.69
2018-04-17T05:15:26.887Z,88.58
2018-04-17T05:17:54.379Z,88.57
2018-04-17T05:20:22.050Z,88.76
2018-04-17T05:22:49.427Z,88.87
2018-04-17T05:25:16.810Z,89.22
2018-04-17T05:27:44.210Z,89.56
2018-04-17T05:30:11.595Z,89.91
2018-04-17T05:32:38.988Z,90.02
2018-04-17T05:35:06.375Z,90.10
2018-04-17T05:37:33.764Z,90.11
2018-04-17T05:40:01.224Z,90.04
2018-04-17T05:42:28.622Z,89.90
2018-04-17T05:44:56.014Z,89.98
2018-04-17T05:47:23.406Z,90.30
2018-04-17T05:49:50.796Z,90.22
2018-04-17T05:52:18.187Z,89.91
2018-04-17T05:54:45.579Z,89.60
2018-04-17T05:57:12.975Z,89.06
2018-04-17T05:59:40.359Z,88.93
2018-04-17T06:02:07.751Z,88.77
2018-04-17T06:04:35.149Z,88.61
2018-04-17T06:07:02.535Z,88.46
2018-04-17T06:09:29.935Z,88.70
2018-04-17T06:11:57.349Z,88.86
2018-04-17T06:14:24.722Z,88.77
2018-04-17T06:16:52.144Z,88.65
2018-04-17T06:19:19.531Z,89.31
2018-04-17T06:21:46.935Z,88.81
2018-04-17T06:24:14.324Z,88.58
2018-04-17T06:26:41.713Z,88.54
2018-04-17T06:29:09.102Z,88.40
2018-04-17T06:31:36.496Z,88.27
2018-04-17T06:34:03.890Z,88.08
2018-04-17T06:36:31.284Z,87.94
2018-04-17T06:38:58.675Z,87.74
2018-04-17T06:41:26.082Z,87.45
2018-04-17T06:43:53.458Z,87.61
2018-04-17T06:46:20.891Z,87.20
2018-04-17T06:48:48.280Z,86.89
2018-04-17T06:51:15.670Z,86.73
2018-04-17T06:53:43.062Z,85.91
2018-04-17T06:56:10.452Z,85.75
2018-04-17T06:58:37.871Z,85.65
2018-04-17T07:01:05.255Z,85.76
2018-04-17T07:03:32.640Z,85.54
2018-04-17T07:06:00.040Z,86.00
2018-04-17T07:08:27.429Z,83.97
2018-04-17T07:10:54.819Z,83.21
2018-04-17T07:13:22.202Z,81.83
2018-04-17T07:15:49.599Z,82.21
2018-04-17T07:18:16.994Z,80.59
2018-04-17T07:20:44.368Z,79.87
2018-04-17T07:23:11.759Z,80.52
2018-04-17T07:25:39.149Z,80.55
2018-04-17T07:28:06.544Z,81.23
2018-04-17T07:30:33.932Z,79.80
2018-04-17T07:33:01.337Z,78.37
2018-04-17T07:35:28.722Z,78.92
2018-04-17T07:37:56.107Z,78.32
2018-04-17T07:40:23.553Z,76.87
2018-04-17T07:42:50.908Z,76.80
2018-04-17T07:45:18.299Z,77.03
2018-04-17T07:50:44.483Z,76.77
2018-04-17T07:53:11.882Z,76.75
2018-04-17T07:55:39.276Z,75.35
2018-04-17T07:58:06.958Z,74.16
2018-04-17T08:00:34.348Z,73.50
2018-04-17T08:03:01.731Z,74.22
2018-04-17T08:05:29.127Z,74.54
2018-04-17T08:07:56.606Z,73.99
2018-04-17T08:10:23.992Z,72.59
2018-04-17T08:12:51.378Z,72.55
2018-04-17T08:15:18.767Z,72.53
2018-04-17T08:17:46.170Z,70.41
2018-04-17T08:20:13.569Z,70.97
2018-04-17T08:22:40.960Z,70.64
2018-04-17T08:25:08.342Z,69.98
2018-04-17T08:27:35.735Z,70.53
2018-04-17T08:30:03.140Z,70.91
2018-04-17T08:32:30.831Z,69.09
2018-04-17T08:34:58.223Z,68.38
2018-04-17T08:37:25.612Z,67.52
2018-04-17T08:39:53.006Z,67.94
2018-04-17T08:42:20.576Z,65.59
2018-04-17T08:44:47.959Z,65.40
2018-04-17T08:47:15.351Z,65.44
2018-04-17T08:49:42.743Z,64.34
2018-04-17T08:52:10.138Z,64.67
2018-04-17T08:54:37.518Z,62.60
2018-04-17T08:57:06.275Z,61.84
2018-04-17T08:59:34.211Z,62.52
2018-04-17T09:02:01.599Z,61.21
2018-04-17T09:04:29.122Z,60.74
2018-04-17T09:06:56.538Z,59.56
2018-04-17T09:09:23.927Z,59.79
2018-04-17T09:11:51.354Z,60.08
2018-04-17T09:14:18.721Z,57.80
2018-04-17T09:16:46.107Z,56.28
2018-04-17T09:19:13.498Z,55.55
2018-04-17T09:21:40.892Z,55.21
2018-04-17T09:24:08.280Z,53.71
2018-04-17T09:26:35.663Z,52.74
2018-04-17T09:29:03.066Z,52.48
2018-04-17T09:31:30.456Z,52.09
2018-04-17T09:33:57.844Z,51.48
2018-04-17T09:36:25.243Z,51.83
2018-04-17T09:38:52.628Z,49.89
2018-04-17T09:41:20.012Z,48.86
2018-04-17T09:43:47.410Z,48.62
2018-04-17T09:46:14.871Z,48.44
2018-04-17T09:48:42.262Z,45.71
2018-04-17T09:51:09.994Z,46.33
2018-04-17T09:53:37.383Z,45.45
2018-04-17T09:56:04.778Z,46.18
2018-04-17T09:58:32.184Z,45.71
2018-04-17T10:00:59.567Z,43.43
2018-04-17T10:03:27.002Z,40.66
2018-04-17T10:05:54.403Z,40.48
2018-04-17T10:08:21.792Z,39.15
2018-04-17T10:10:49.182Z,43.21
2018-04-17T10:13:16.583Z,41.16
2018-04-17T10:15:43.972Z,36.67
2018-04-17T10:18:11.362Z,40.06
2018-04-17T10:20:39.071Z,37.40
2018-04-17T10:23:06.463Z,38.96
2018-04-17T10:25:33.854Z,37.66
2018-04-17T10:28:01.251Z,41.25
2018-04-17T10:30:28.639Z,35.13
2018-04-17T10:32:56.027Z,36.06
2018-04-17T10:35:23.419Z,38.85
2018-04-17T10:37:50.810Z,36.63
2018-04-17T10:40:18.203Z,35.51
2018-04-17T10:42:45.621Z,33.76
2018-04-17T10:45:13.005Z,34.69
2018-04-17T10:47:40.390Z,38.62
2018-04-17T10:50:07.947Z,36.50
2018-04-17T10:52:35.338Z,37.75
2018-04-17T10:55:02.738Z,33.41
2018-04-17T10:57:30.123Z,35.29
2018-04-17T10:59:57.515Z,35.74
2018-04-17T11:02:24.900Z,33.52
2018-04-17T11:04:52.329Z,33.73
2018-04-17T11:07:19.684Z,37.85
2018-04-17T11:09:47.074Z,34.34
2018-04-17T11:12:14.459Z,36.88
2018-04-17T11:14:41.855Z,33.70
2018-04-17T11:17:09.238Z,36.28
2018-04-17T11:19:36.635Z,34.53
2018-04-17T11:22:04.023Z,35.91
2018-04-17T11:24:31.425Z,34.62
2018-04-17T11:26:58.807Z,36.62
2018-04-17T11:29:26.211Z,35.43
2018-04-17T11:31:53.602Z,38.03
2018-04-17T11:34:20.996Z,33.15
2018-04-17T11:36:48.387Z,32.21
2018-04-17T11:39:15.788Z,34.40
2018-04-17T11:41:43.208Z,33.14
2018-04-17T11:44:10.563Z,34.18
2018-04-17T11:46:37.955Z,34.47
2018-04-17T11:49:05.340Z,34.83
2018-04-17T11:51:32.736Z,34.76
2018-04-17T11:54:00.119Z,34.55
2018-04-17T11:56:27.512Z,33.89
2018-04-17T11:58:54.895Z,33.53
2018-04-17T12:01:22.287Z,36.42
2018-04-17T12:03:49.672Z,33.26
2018-04-17T12:06:17.065Z,37.31
2018-04-17T12:08:44.447Z,36.08
2018-04-17T12:11:11.839Z,35.65
2018-04-17T12:13:39.229Z,33.77
2018-04-17T12:16:06.624Z,36.74
2018-04-17T12:18:34.086Z,34.00
2018-04-17T12:21:01.487Z,35.71
2018-04-17T12:23:28.875Z,35.41
2018-04-17T12:25:56.278Z,39.24
2018-04-17T12:28:23.666Z,36.79
2018-04-17T12:30:51.052Z,35.33
2018-04-17T12:33:18.443Z,34.66
2018-04-17T12:35:45.835Z,35.81
2018-04-17T12:38:13.228Z,34.49
2018-04-17T12:40:40.738Z,36.26
2018-04-17T12:43:08.131Z,33.85
2018-04-17T12:45:35.518Z,34.05
2018-04-17T12:48:02.911Z,34.00
2018-04-17T12:50:30.299Z,32.44
2018-04-17T12:52:57.692Z,35.48
2018-04-17T12:55:25.079Z,34.91
2018-04-17T12:57:52.471Z,35.81
2018-04-17T13:00:19.859Z,35.32
2018-04-17T13:02:47.255Z,33.63
2018-04-17T13:05:14.640Z,34.27
2018-04-17T13:07:42.097Z,35.56
2018-04-17T13:10:09.423Z,36.38
2018-04-17T13:12:36.810Z,34.03
2018-04-17T13:15:04.203Z,35.23
2018-04-17T13:17:31.595Z,35.39
2018-04-17T13:19:58.983Z,34.94
2018-04-17T13:22:26.559Z,35.76
2018-04-17T13:24:53.952Z,33.59
2018-04-17T13:27:21.352Z,36.18
2018-04-17T13:29:48.745Z,35.21
2018-04-17T13:32:16.175Z,36.10
2018-04-17T13:34:43.567Z,35.32
2018-04-17T13:37:10.961Z,35.53
2018-04-17T13:39:38.353Z,34.40
2018-04-17T13:42:05.755Z,35.93
2018-04-17T13:44:33.151Z,35.39
2018-04-17T13:47:00.547Z,37.27
2018-04-17T13:49:27.946Z,35.14
2018-04-17T13:51:55.957Z,35.58
2018-04-17T13:54:23.339Z,35.80
2018-04-17T13:56:50.730Z,35.58
2018-04-17T13:59:18.119Z,35.94
2018-04-17T14:01:45.507Z,34.44
2018-04-17T14:04:12.899Z,34.34
2018-04-17T14:06:40.295Z,35.16
2018-04-17T14:09:07.690Z,34.90
2018-04-17T14:11:35.087Z,33.27
2018-04-17T14:14:02.479Z,35.97
2018-04-17T14:16:29.867Z,38.36
2018-04-17T14:18:57.263Z,35.35
2018-04-17T14:21:24.655Z,34.85
2018-04-17T14:23:52.043Z,37.75
2018-04-17T14:26:19.437Z,35.24
2018-04-17T14:28:46.823Z,37.05
2018-04-17T14:31:14.215Z,35.10
2018-04-17T14:33:41.603Z,35.13
2018-04-17T14:36:09.022Z,34.30
2018-04-17T14:38:36.418Z,35.38
2018-04-17T14:41:03.815Z,37.95
2018-04-17T14:43:31.203Z,34.98
2018-04-17T14:45:58.596Z,37.39
2018-04-17T14:48:26.077Z,35.67
2018-04-17T14:50:53.459Z,34.98
2018-04-17T14:53:20.855Z,37.28
2018-04-17T14:55:48.262Z,37.09
2018-04-17T14:58:15.833Z,35.89
2018-04-17T15:00:43.227Z,36.31
2018-04-17T15:03:10.628Z,35.77
2018-04-17T15:05:38.015Z,36.02
2018-04-17T15:08:05.410Z,37.60
2018-04-17T15:10:32.874Z,38.47
2018-04-17T15:13:00.276Z,36.96
2018-04-17T15:15:27.659Z,37.66
2018-04-17T15:17:55.042Z,35.57
2018-04-17T15:20:22.974Z,36.04
2018-04-17T15:22:50.591Z,36.02
2018-04-17T15:25:18.001Z,36.55
2018-04-17T15:27:45.388Z,36.63
2018-04-17T15:30:12.790Z,37.17
2018-04-17T15:32:40.168Z,35.92
2018-04-17T15:35:07.565Z,35.99
2018-04-17T15:37:35.015Z,36.60
2018-04-17T15:40:02.414Z,34.64
2018-04-17T15:42:29.807Z,35.74
2018-04-17T15:44:57.199Z,34.96
2018-04-17T15:47:24.591Z,34.83
2018-04-17T15:49:51.996Z,37.35
2018-04-17T15:52:19.379Z,36.47
2018-04-17T15:54:46.768Z,35.48
2018-04-17T15:57:14.174Z,36.63
2018-04-17T15:59:41.579Z,37.70
2018-04-17T16:02:08.975Z,36.51
2018-04-17T16:04:36.367Z,38.11
2018-04-17T16:07:03.763Z,35.90
2018-04-17T16:09:31.155Z,35.33
2018-04-17T16:11:58.548Z,35.76
2018-04-17T16:14:25.935Z,36.55
2018-04-17T16:16:53.327Z,35.66
2018-04-17T16:19:20.718Z,37.57
2018-04-17T16:21:48.111Z,39.33
2018-04-17T16:24:15.503Z,37.78
2018-04-17T16:26:42.895Z,37.68
2018-04-17T16:29:10.279Z,36.53
2018-04-17T16:31:37.675Z,37.58
2018-04-17T16:34:05.067Z,38.21
2018-04-17T16:36:32.459Z,38.39
2018-04-17T16:38:59.857Z,37.90
2018-04-17T16:41:27.248Z,37.94
2018-04-17T16:43:54.700Z,38.88
2018-04-17T16:46:22.151Z,40.06
2018-04-17T16:48:49.543Z,38.18
2018-04-17T16:51:17.133Z,39.52
2018-04-17T16:53:44.502Z,38.65
2018-04-17T16:56:11.890Z,39.92
2018-04-17T16:58:39.286Z,38.97
2018-04-17T17:01:06.674Z,40.01
2018-04-17T17:03:34.070Z,39.50
2018-04-17T17:06:01.457Z,40.25
2018-04-17T17:08:28.848Z,38.99
2018-04-17T17:10:56.235Z,39.24
2018-04-17T17:13:23.627Z,41.03
2018-04-17T17:15:51.027Z,37.91
2018-04-17T17:18:18.418Z,37.84
2018-04-17T17:20:45.820Z,39.69
2018-04-17T17:23:13.206Z,40.03
2018-04-17T17:25:40.604Z,40.07
2018-04-17T17:28:08.109Z,41.91
2018-04-17T17:30:35.486Z,40.56
2018-04-17T17:33:02.871Z,41.45
2018-04-17T17:35:30.272Z,42.46
2018-04-17T17:37:57.650Z,43.37
2018-04-17T17:40:25.052Z,43.47
2018-04-17T17:42:52.440Z,41.87
2018-04-17T17:45:19.839Z,44.01
2018-04-17T17:47:47.225Z,44.52
2018-04-17T17:50:14.727Z,44.87
2018-04-17T17:52:42.116Z,43.90
2018-04-17T17:55:09.499Z,43.76
2018-04-17T17:57:36.895Z,44.31
2018-04-17T18:00:04.286Z,43.83
2018-04-17T18:02:31.684Z,45.34
2018-04-17T18:04:59.155Z,46.26
2018-04-17T18:07:26.498Z,46.37
2018-04-17T18:09:53.890Z,45.49
2018-04-17T18:12:21.347Z,46.66
2018-04-17T18:14:48.679Z,46.50
2018-04-17T18:17:16.071Z,46.65
2018-04-17T18:19:43.539Z,46.93
2018-04-17T18:22:10.863Z,48.13
2018-04-17T18:24:38.251Z,48.74
2018-04-17T18:27:05.638Z,48.80
2018-04-17T18:29:33.031Z,49.32
2018-04-17T18:32:00.444Z,49.61
2018-04-17T18:34:27.811Z,50.20
2018-04-17T18:36:55.199Z,51.04
2018-04-17T18:39:22.611Z,51.20
2018-04-17T18:41:50.006Z,51.52
2018-04-17T18:44:17.413Z,51.91
2018-04-17T18:46:44.971Z,52.13
2018-04-17T18:49:12.404Z,52.09
2018-04-17T18:51:39.860Z,52.28
2018-04-17T18:54:07.247Z,53.46
2018-04-17T18:56:34.635Z,53.65
2018-04-17T18:59:02.052Z,54.34
2018-04-17T19:01:29.448Z,54.53
2018-04-17T19:03:56.879Z,54.55
2018-04-17T19:06:24.276Z,54.54
2018-04-17T19:08:51.675Z,54.84
2018-04-17T19:11:19.063Z,54.94
2018-04-17T19:13:46.473Z,55.07
2018-04-17T19:16:13.847Z,55.57
2018-04-17T19:18:41.235Z,54.20
2018-04-17T19:21:08.619Z,55.06
2018-04-17T19:23:36.003Z,55.57
2018-04-17T19:26:03.402Z,54.91
2018-04-17T19:28:30.785Z,55.57
2018-04-17T19:30:58.177Z,55.97
2018-04-17T19:33:25.555Z,56.48
2018-04-17T19:35:53.003Z,56.83
2018-04-17T19:38:20.391Z,55.38
2018-04-17T19:40:47.787Z,55.45
2018-04-17T19:43:15.171Z,56.26
2018-04-17T19:45:42.615Z,55.56
2018-04-17T19:48:09.987Z,56.30
2018-04-17T19:50:37.383Z,56.98
2018-04-17T19:53:04.771Z,57.59
2018-04-17T19:55:32.171Z,57.17
2018-04-17T19:57:59.563Z,57.11
2018-04-17T20:00:26.951Z,56.58
2018-04-17T20:02:54.345Z,56.63
2018-04-17T20:05:21.723Z,56.30
2018-04-17T20:07:49.118Z,56.01
2018-04-17T20:10:16.507Z,56.86
2018-04-17T20:12:43.898Z,57.70
2018-04-17T20:15:11.289Z,57.37
2018-04-17T20:17:38.683Z,57.67
2018-04-17T20:20:06.064Z,57.65
2018-04-17T20:22:33.458Z,57.62
2018-04-17T20:25:00.851Z,57.16
2018-04-17T20:27:28.238Z,56.87
2018-04-17T20:29:55.619Z,57.21
2018-04-17T20:32:23.026Z,57.86
2018-04-17T20:34:50.422Z,58.31
2018-04-17T20:37:17.810Z,58.86
2018-04-17T20:39:45.210Z,60.46
2018-04-17T20:42:12.624Z,61.01
2018-04-17T20:44:40.237Z,61.88
2018-04-17T20:47:07.648Z,62.84
2018-04-17T20:49:35.039Z,64.12
2018-04-17T20:52:02.426Z,65.08
2018-04-17T20:54:29.822Z,65.66
2018-04-17T20:56:57.215Z,66.85
2018-04-17T20:59:24.605Z,67.29
2018-04-17T21:01:52.020Z,67.02
2018-04-17T21:04:19.405Z,67.44
2018-04-17T21:06:46.787Z,67.69
2018-04-17T21:09:14.179Z,67.92
2018-04-17T21:11:41.563Z,67.79
2018-04-17T21:14:08.955Z,67.70
2018-04-17T21:16:36.340Z,67.25
2018-04-17T21:19:04.059Z,66.50
2018-04-17T21:21:31.515Z,66.50
2018-04-17T21:23:58.907Z,66.40
2018-04-17T21:26:26.303Z,66.26
2018-04-17T21:28:53.691Z,65.97
2018-04-17T21:31:21.084Z,65.69
2018-04-17T21:33:48.475Z,65.43
2018-04-17T21:36:15.871Z,66.11
2018-04-17T21:38:43.371Z,66.87
2018-04-17T21:41:10.773Z,66.89
2018-04-17T21:43:38.155Z,67.26
2018-04-17T21:46:05.547Z,67.05
2018-04-17T21:48:32.930Z,66.72
2018-04-17T21:51:00.323Z,66.05
2018-04-17T21:53:27.720Z,66.30
2018-04-17T21:55:55.114Z,66.33
2018-04-17T21:58:22.505Z,66.82
2018-04-17T22:00:49.890Z,67.46
2018-04-17T22:03:17.283Z,66.80
2018-04-17T22:05:44.667Z,67.86
2018-04-17T22:08:12.059Z,65.69
2018-04-17T22:10:39.443Z,66.54
2018-04-17T22:13:06.835Z,67.89
2018-04-17T22:15:34.227Z,68.09
2018-04-17T22:18:01.622Z,68.66
2018-04-17T22:20:29.007Z,68.60
2018-04-17T22:22:56.439Z,67.63
2018-04-17T22:25:23.827Z,67.83
2018-04-17T22:27:51.219Z,68.11
2018-04-17T22:30:18.607Z,68.25
2018-04-17T22:32:45.995Z,68.65
2018-04-17T22:35:13.387Z,69.13
2018-04-17T22:37:40.787Z,68.98
2018-04-17T22:40:08.179Z,68.25
2018-04-17T22:42:35.567Z,68.25
2018-04-17T22:45:02.975Z,68.55
2018-04-17T22:47:30.360Z,68.43
2018-04-17T22:49:57.752Z,67.90
2018-04-17T22:52:25.147Z,67.70
2018-04-17T22:54:52.535Z,68.20
2018-04-17T22:57:19.918Z,68.90
2018-04-17T22:59:47.318Z,68.77
2018-04-17T23:02:14.699Z,69.33
2018-04-17T23:04:42.091Z,69.63
2018-04-17T23:07:09.474Z,69.35
2018-04-17T23:09:36.866Z,68.65
2018-04-17T23:12:04.255Z,68.78
2018-04-17T23:14:31.665Z,69.62
2018-04-17T23:16:59.035Z,69.99
2018-04-17T23:19:26.441Z,70.30
2018-04-17T23:21:53.826Z,70.41
2018-04-17T23:24:21.223Z,70.65
2018-04-17T23:26:48.619Z,70.68
2018-04-17T23:29:16.007Z,70.40
2018-04-17T23:31:43.399Z,70.11
2018-04-17T23:34:10.782Z,70.02
2018-04-17T23:36:38.175Z,69.89
2018-04-17T23:39:05.560Z,69.90
2018-04-17T23:41:32.955Z,70.13
2018-04-17T23:44:00.338Z,70.13
2018-04-17T23:46:27.747Z,70.28
2018-04-17T23:48:55.140Z,70.53
2018-04-17T23:51:22.531Z,70.54
2018-04-17T23:53:49.920Z,70.34
2018-04-17T23:56:17.315Z,70.58
2018-04-17T23:58:44.699Z,70.62
